sensor_id;sensor_type;location;lat;lon;timestamp;P1;durP1;ratioP1;P2;durP2;ratioP2
75554;SDS011;66087;53.126;17.960;2023-12-04T00:00:32;17.10;;;6.50;;
75554;SDS011;66087;53.126;17.960;2023-12-04T00:03:25;17.10;;;5.20;;
75554;SDS011;66087;53.126;17.960;2023-12-04T00:05:55;29.30;;;11.50;;
75554;SDS011;66087;53.126;17.960;2023-12-04T00:08:37;26.40;;;9.90;;
75554;SDS011;66087;53.126;17.960;2023-12-04T00:11:15;25.20;;;10.20;;
75554;SDS011;66087;53.126;17.960;2023-12-04T00:13:44;22.70;;;8.00;;
75554;SDS011;66087;53.126;17.960;2023-12-04T00:16:54;18.90;;;7.00;;
75554;SDS011;66087;53.126;17.960;2023-12-04T00:19:45;16.70;;;6.90;;
75554;SDS011;66087;53.126;17.960;2023-12-04T00:22:12;23.00;;;8.80;;
75554;SDS011;66087;53.126;17.960;2023-12-04T00:24:44;23.40;;;9.40;;
75554;SDS011;66087;53.126;17.960;2023-12-04T00:27:27;17.40;;;6.90;;
75554;SDS011;66087;53.126;17.960;2023-12-04T00:30:12;14.90;;;5.20;;
75554;SDS011;66087;53.126;17.960;2023-12-04T00:32:45;22.40;;;9.00;;
75554;SDS011;66087;53.126;17.960;2023-12-04T00:35:12;14.50;;;6.00;;
75554;SDS011;66087;53.126;17.960;2023-12-04T00:37:48;18.80;;;7.50;;
75554;SDS011;66087;53.126;17.960;2023-12-04T00:40:18;12.40;;;4.70;;
75554;SDS011;66087;53.126;17.960;2023-12-04T00:42:54;14.50;;;5.00;;
75554;SDS011;66087;53.126;17.960;2023-12-04T00:45:23;14.60;;;6.00;;
75554;SDS011;66087;53.126;17.960;2023-12-04T00:47:54;15.60;;;5.80;;
75554;SDS011;66087;53.126;17.960;2023-12-04T00:50:30;17.80;;;6.80;;
75554;SDS011;66087;53.126;17.960;2023-12-04T00:53:00;12.40;;;4.50;;
75554;SDS011;66087;53.126;17.960;2023-12-04T00:55:43;16.90;;;6.90;;
75554;SDS011;66087;53.126;17.960;2023-12-04T00:58:28;19.60;;;7.90;;
75554;SDS011;66087;53.126;17.960;2023-12-04T01:01:05;11.90;;;4.50;;
75554;SDS011;66087;53.126;17.960;2023-12-04T01:03:37;16.40;;;6.40;;
75554;SDS011;66087;53.126;17.960;2023-12-04T01:06:22;18.80;;;6.70;;
75554;SDS011;66087;53.126;17.960;2023-12-04T01:08:50;19.50;;;8.20;;
75554;SDS011;66087;53.126;17.960;2023-12-04T01:11:21;20.00;;;7.40;;
75554;SDS011;66087;53.126;17.960;2023-12-04T01:13:49;16.70;;;7.10;;
75554;SDS011;66087;53.126;17.960;2023-12-04T01:16:19;11.70;;;4.40;;
75554;SDS011;66087;53.126;17.960;2023-12-04T01:18:49;14.40;;;5.50;;
75554;SDS011;66087;53.126;17.960;2023-12-04T01:21:16;18.20;;;8.00;;
75554;SDS011;66087;53.126;17.960;2023-12-04T01:23:48;14.10;;;5.90;;
75554;SDS011;66087;53.126;17.960;2023-12-04T01:26:15;20.40;;;7.80;;
75554;SDS011;66087;53.126;17.960;2023-12-04T01:28:51;15.80;;;6.00;;
75554;SDS011;66087;53.126;17.960;2023-12-04T01:31:19;10.40;;;3.40;;
75554;SDS011;66087;53.126;17.960;2023-12-04T01:33:49;15.20;;;5.50;;
75554;SDS011;66087;53.126;17.960;2023-12-04T01:36:24;10.40;;;3.90;;
75554;SDS011;66087;53.126;17.960;2023-12-04T01:38:50;17.90;;;7.70;;
75554;SDS011;66087;53.126;17.960;2023-12-04T01:41:19;18.20;;;7.90;;
75554;SDS011;66087;53.126;17.960;2023-12-04T01:43:50;13.40;;;5.40;;
75554;SDS011;66087;53.126;17.960;2023-12-04T01:46:17;12.60;;;4.70;;
75554;SDS011;66087;53.126;17.960;2023-12-04T01:48:47;16.00;;;5.10;;
75554;SDS011;66087;53.126;17.960;2023-12-04T01:51:16;14.60;;;5.80;;
75554;SDS011;66087;53.126;17.960;2023-12-04T01:53:45;20.10;;;8.30;;
75554;SDS011;66087;53.126;17.960;2023-12-04T01:56:14;14.90;;;5.60;;
75554;SDS011;66087;53.126;17.960;2023-12-04T01:58:52;21.50;;;8.00;;
75554;SDS011;66087;53.126;17.960;2023-12-04T02:01:45;19.30;;;8.10;;
75554;SDS011;66087;53.126;17.960;2023-12-04T02:04:14;21.00;;;8.10;;
75554;SDS011;66087;53.126;17.960;2023-12-04T02:06:41;22.00;;;8.60;;
75554;SDS011;66087;53.126;17.960;2023-12-04T02:09:14;19.40;;;7.40;;
75554;SDS011;66087;53.126;17.960;2023-12-04T02:11:47;22.10;;;8.60;;
75554;SDS011;66087;53.126;17.960;2023-12-04T02:14:19;18.00;;;7.30;;
75554;SDS011;66087;53.126;17.960;2023-12-04T02:16:57;21.10;;;7.50;;
75554;SDS011;66087;53.126;17.960;2023-12-04T02:19:36;19.80;;;7.60;;
75554;SDS011;66087;53.126;17.960;2023-12-04T02:22:16;16.60;;;6.20;;
75554;SDS011;66087;53.126;17.960;2023-12-04T02:24:47;18.90;;;6.60;;
75554;SDS011;66087;53.126;17.960;2023-12-04T02:27:22;19.00;;;7.00;;
75554;SDS011;66087;53.126;17.960;2023-12-04T02:29:56;12.40;;;4.10;;
75554;SDS011;66087;53.126;17.960;2023-12-04T02:32:45;13.60;;;5.10;;
75554;SDS011;66087;53.126;17.960;2023-12-04T02:35:20;17.50;;;7.90;;
75554;SDS011;66087;53.126;17.960;2023-12-04T02:37:50;17.50;;;6.90;;
75554;SDS011;66087;53.126;17.960;2023-12-04T02:40:17;12.00;;;4.50;;
75554;SDS011;66087;53.126;17.960;2023-12-04T02:42:46;12.70;;;4.90;;
75554;SDS011;66087;53.126;17.960;2023-12-04T02:45:14;18.90;;;7.50;;
75554;SDS011;66087;53.126;17.960;2023-12-04T02:47:53;14.60;;;5.70;;
75554;SDS011;66087;53.126;17.960;2023-12-04T02:50:22;12.40;;;4.60;;
75554;SDS011;66087;53.126;17.960;2023-12-04T02:52:51;16.80;;;6.30;;
75554;SDS011;66087;53.126;17.960;2023-12-04T02:55:18;10.80;;;3.60;;
75554;SDS011;66087;53.126;17.960;2023-12-04T02:57:45;14.40;;;6.00;;
75554;SDS011;66087;53.126;17.960;2023-12-04T03:00:16;14.40;;;5.50;;
75554;SDS011;66087;53.126;17.960;2023-12-04T03:02:43;15.20;;;6.20;;
75554;SDS011;66087;53.126;17.960;2023-12-04T03:05:10;15.50;;;6.80;;
75554;SDS011;66087;53.126;17.960;2023-12-04T03:07:36;21.20;;;7.50;;
75554;SDS011;66087;53.126;17.960;2023-12-04T03:10:10;16.60;;;6.70;;
75554;SDS011;66087;53.126;17.960;2023-12-04T03:12:37;18.00;;;7.30;;
75554;SDS011;66087;53.126;17.960;2023-12-04T03:15:05;11.70;;;4.20;;
75554;SDS011;66087;53.126;17.960;2023-12-04T03:17:37;15.50;;;5.70;;
75554;SDS011;66087;53.126;17.960;2023-12-04T03:20:04;15.70;;;6.50;;
75554;SDS011;66087;53.126;17.960;2023-12-04T03:22:44;13.90;;;4.80;;
75554;SDS011;66087;53.126;17.960;2023-12-04T03:25:20;18.80;;;7.00;;
75554;SDS011;66087;53.126;17.960;2023-12-04T03:27:50;12.30;;;4.60;;
75554;SDS011;66087;53.126;17.960;2023-12-04T03:30:17;15.80;;;6.10;;
75554;SDS011;66087;53.126;17.960;2023-12-04T03:32:45;13.60;;;4.60;;
75554;SDS011;66087;53.126;17.960;2023-12-04T03:35:11;16.60;;;5.90;;
75554;SDS011;66087;53.126;17.960;2023-12-04T03:37:41;14.30;;;5.00;;
75554;SDS011;66087;53.126;17.960;2023-12-04T03:40:09;15.50;;;5.60;;
75554;SDS011;66087;53.126;17.960;2023-12-04T03:42:37;19.10;;;7.10;;
75554;SDS011;66087;53.126;17.960;2023-12-04T03:45:05;14.70;;;5.70;;
75554;SDS011;66087;53.126;17.960;2023-12-04T03:47:34;16.80;;;5.40;;
75554;SDS011;66087;53.126;17.960;2023-12-04T03:50:02;12.70;;;4.50;;
75554;SDS011;66087;53.126;17.960;2023-12-04T03:52:31;17.80;;;6.70;;
75554;SDS011;66087;53.126;17.960;2023-12-04T03:55:00;14.40;;;5.20;;
75554;SDS011;66087;53.126;17.960;2023-12-04T03:57:26;11.80;;;4.30;;
75554;SDS011;66087;53.126;17.960;2023-12-04T03:59:56;22.40;;;9.00;;
75554;SDS011;66087;53.126;17.960;2023-12-04T04:02:27;17.40;;;6.90;;
75554;SDS011;66087;53.126;17.960;2023-12-04T04:04:57;15.30;;;5.80;;
75554;SDS011;66087;53.126;17.960;2023-12-04T04:07:28;19.90;;;7.60;;
75554;SDS011;66087;53.126;17.960;2023-12-04T04:09:54;12.20;;;4.70;;
75554;SDS011;66087;53.126;17.960;2023-12-04T04:12:23;13.50;;;4.90;;
75554;SDS011;66087;53.126;17.960;2023-12-04T04:14:55;14.20;;;5.00;;
75554;SDS011;66087;53.126;17.960;2023-12-04T04:17:22;18.00;;;7.10;;
75554;SDS011;66087;53.126;17.960;2023-12-04T04:19:48;19.10;;;6.50;;
75554;SDS011;66087;53.126;17.960;2023-12-04T04:22:15;18.50;;;6.80;;
75554;SDS011;66087;53.126;17.960;2023-12-04T04:24:42;18.80;;;6.70;;
75554;SDS011;66087;53.126;17.960;2023-12-04T04:27:08;19.30;;;7.30;;
75554;SDS011;66087;53.126;17.960;2023-12-04T04:29:35;20.00;;;7.00;;
75554;SDS011;66087;53.126;17.960;2023-12-04T04:32:01;13.60;;;4.60;;
75554;SDS011;66087;53.126;17.960;2023-12-04T04:34:27;16.70;;;6.90;;
75554;SDS011;66087;53.126;17.960;2023-12-04T04:36:54;17.70;;;6.60;;
75554;SDS011;66087;53.126;17.960;2023-12-04T04:39:20;17.40;;;6.70;;
75554;SDS011;66087;53.126;17.960;2023-12-04T04:41:46;16.10;;;5.50;;
75554;SDS011;66087;53.126;17.960;2023-12-04T04:44:14;20.10;;;7.80;;
75554;SDS011;66087;53.126;17.960;2023-12-04T04:46:41;18.10;;;7.50;;
75554;SDS011;66087;53.126;17.960;2023-12-04T04:49:07;15.50;;;5.60;;
75554;SDS011;66087;53.126;17.960;2023-12-04T04:51:35;23.40;;;8.80;;
75554;SDS011;66087;53.126;17.960;2023-12-04T04:54:01;17.90;;;6.30;;
75554;SDS011;66087;53.126;17.960;2023-12-04T04:56:28;18.80;;;6.90;;
75554;SDS011;66087;53.126;17.960;2023-12-04T04:58:55;14.80;;;6.00;;
75554;SDS011;66087;53.126;17.960;2023-12-04T05:01:22;18.90;;;7.50;;
75554;SDS011;66087;53.126;17.960;2023-12-04T05:03:51;17.30;;;6.00;;
75554;SDS011;66087;53.126;17.960;2023-12-04T05:06:18;19.80;;;6.60;;
75554;SDS011;66087;53.126;17.960;2023-12-04T05:08:45;14.40;;;5.20;;
75554;SDS011;66087;53.126;17.960;2023-12-04T05:11:14;18.30;;;6.40;;
75554;SDS011;66087;53.126;17.960;2023-12-04T05:13:44;22.00;;;8.10;;
75554;SDS011;66087;53.126;17.960;2023-12-04T05:16:11;18.30;;;6.10;;
75554;SDS011;66087;53.126;17.960;2023-12-04T05:18:38;12.50;;;4.30;;
75554;SDS011;66087;53.126;17.960;2023-12-04T05:21:09;16.20;;;5.00;;
75554;SDS011;66087;53.126;17.960;2023-12-04T05:23:37;24.40;;;9.20;;
75554;SDS011;66087;53.126;17.960;2023-12-04T05:26:04;21.80;;;8.40;;
75554;SDS011;66087;53.126;17.960;2023-12-04T05:28:32;26.00;;;10.20;;
75554;SDS011;66087;53.126;17.960;2023-12-04T05:31:00;19.10;;;7.30;;
75554;SDS011;66087;53.126;17.960;2023-12-04T05:33:26;24.40;;;9.30;;
75554;SDS011;66087;53.126;17.960;2023-12-04T05:35:53;27.00;;;9.10;;
75554;SDS011;66087;53.126;17.960;2023-12-04T05:38:28;20.30;;;8.30;;
75554;SDS011;66087;53.126;17.960;2023-12-04T05:40:55;21.40;;;8.20;;
75554;SDS011;66087;53.126;17.960;2023-12-04T05:43:24;23.70;;;8.10;;
75554;SDS011;66087;53.126;17.960;2023-12-04T05:45:51;26.90;;;10.90;;
75554;SDS011;66087;53.126;17.960;2023-12-04T05:48:18;30.60;;;12.40;;
75554;SDS011;66087;53.126;17.960;2023-12-04T05:50:45;18.50;;;6.10;;
75554;SDS011;66087;53.126;17.960;2023-12-04T05:53:12;19.80;;;8.10;;
75554;SDS011;66087;53.126;17.960;2023-12-04T05:55:38;19.50;;;7.30;;
75554;SDS011;66087;53.126;17.960;2023-12-04T05:58:04;21.20;;;8.90;;
75554;SDS011;66087;53.126;17.960;2023-12-04T06:00:31;28.30;;;11.50;;
75554;SDS011;66087;53.126;17.960;2023-12-04T06:03:10;19.90;;;6.50;;
75554;SDS011;66087;53.126;17.960;2023-12-04T06:05:38;18.60;;;7.80;;
75554;SDS011;66087;53.126;17.960;2023-12-04T06:08:04;21.20;;;8.50;;
75554;SDS011;66087;53.126;17.960;2023-12-04T06:10:30;22.90;;;9.20;;
75554;SDS011;66087;53.126;17.960;2023-12-04T06:12:56;26.60;;;10.50;;
75554;SDS011;66087;53.126;17.960;2023-12-04T06:15:22;18.80;;;7.20;;
75554;SDS011;66087;53.126;17.960;2023-12-04T06:17:48;17.60;;;7.10;;
75554;SDS011;66087;53.126;17.960;2023-12-04T06:20:14;18.50;;;7.00;;
75554;SDS011;66087;53.126;17.960;2023-12-04T06:22:41;18.90;;;7.00;;
75554;SDS011;66087;53.126;17.960;2023-12-04T06:25:07;19.50;;;7.50;;
75554;SDS011;66087;53.126;17.960;2023-12-04T06:27:33;22.80;;;9.40;;
75554;SDS011;66087;53.126;17.960;2023-12-04T06:30:01;17.00;;;6.10;;
75554;SDS011;66087;53.126;17.960;2023-12-04T06:32:29;21.50;;;8.60;;
75554;SDS011;66087;53.126;17.960;2023-12-04T06:35:03;20.10;;;7.60;;
75554;SDS011;66087;53.126;17.960;2023-12-04T06:37:29;17.60;;;5.70;;
75554;SDS011;66087;53.126;17.960;2023-12-04T06:40:02;26.00;;;10.80;;
75554;SDS011;66087;53.126;17.960;2023-12-04T06:42:32;25.00;;;11.30;;
75554;SDS011;66087;53.126;17.960;2023-12-04T06:44:58;29.30;;;11.10;;
75554;SDS011;66087;53.126;17.960;2023-12-04T06:47:33;23.80;;;9.20;;
75554;SDS011;66087;53.126;17.960;2023-12-04T06:50:00;31.90;;;11.80;;
75554;SDS011;66087;53.126;17.960;2023-12-04T06:52:27;22.70;;;8.40;;
75554;SDS011;66087;53.126;17.960;2023-12-04T06:54:53;19.40;;;6.80;;
75554;SDS011;66087;53.126;17.960;2023-12-04T06:57:19;22.40;;;9.00;;
75554;SDS011;66087;53.126;17.960;2023-12-04T06:59:49;19.80;;;7.30;;
75554;SDS011;66087;53.126;17.960;2023-12-04T07:02:16;20.90;;;8.30;;
75554;SDS011;66087;53.126;17.960;2023-12-04T07:04:54;25.30;;;9.20;;
75554;SDS011;66087;53.126;17.960;2023-12-04T07:07:27;16.40;;;5.80;;
75554;SDS011;66087;53.126;17.960;2023-12-04T07:09:54;26.00;;;9.50;;
75554;SDS011;66087;53.126;17.960;2023-12-04T07:12:20;28.10;;;10.40;;
75554;SDS011;66087;53.126;17.960;2023-12-04T07:14:48;20.70;;;7.30;;
75554;SDS011;66087;53.126;17.960;2023-12-04T07:17:14;21.80;;;7.70;;
75554;SDS011;66087;53.126;17.960;2023-12-04T07:19:43;28.90;;;10.90;;
75554;SDS011;66087;53.126;17.960;2023-12-04T07:22:12;29.10;;;11.80;;
75554;SDS011;66087;53.126;17.960;2023-12-04T07:24:43;24.50;;;9.50;;
75554;SDS011;66087;53.126;17.960;2023-12-04T07:27:10;21.70;;;8.70;;
75554;SDS011;66087;53.126;17.960;2023-12-04T07:29:37;28.40;;;11.60;;
75554;SDS011;66087;53.126;17.960;2023-12-04T07:32:10;26.80;;;11.00;;
75554;SDS011;66087;53.126;17.960;2023-12-04T07:34:37;18.90;;;8.60;;
75554;SDS011;66087;53.126;17.960;2023-12-04T07:37:04;21.80;;;9.00;;
75554;SDS011;66087;53.126;17.960;2023-12-04T07:39:35;23.20;;;9.10;;
75554;SDS011;66087;53.126;17.960;2023-12-04T07:42:02;24.10;;;9.70;;
75554;SDS011;66087;53.126;17.960;2023-12-04T07:44:42;17.70;;;6.50;;
75554;SDS011;66087;53.126;17.960;2023-12-04T07:47:12;33.00;;;12.90;;
75554;SDS011;66087;53.126;17.960;2023-12-04T07:49:57;20.50;;;7.40;;
75554;SDS011;66087;53.126;17.960;2023-12-04T07:53:18;21.70;;;8.30;;
75554;SDS011;66087;53.126;17.960;2023-12-04T07:56:14;27.70;;;11.20;;
75554;SDS011;66087;53.126;17.960;2023-12-04T07:58:56;25.60;;;9.90;;
75554;SDS011;66087;53.126;17.960;2023-12-04T08:05:35;23.30;;;8.80;;
75554;SDS011;66087;53.126;17.960;2023-12-04T08:08:04;29.10;;;12.00;;
75554;SDS011;66087;53.126;17.960;2023-12-04T08:10:30;30.20;;;13.30;;
75554;SDS011;66087;53.126;17.960;2023-12-04T08:12:57;26.50;;;10.70;;
75554;SDS011;66087;53.126;17.960;2023-12-04T08:15:23;22.40;;;9.10;;
75554;SDS011;66087;53.126;17.960;2023-12-04T08:21:22;34.30;;;13.40;;
75554;SDS011;66087;53.126;17.960;2023-12-04T08:23:51;34.60;;;13.70;;
75554;SDS011;66087;53.126;17.960;2023-12-04T08:26:28;34.00;;;13.10;;
75554;SDS011;66087;53.126;17.960;2023-12-04T08:28:55;28.90;;;12.20;;
75554;SDS011;66087;53.126;17.960;2023-12-04T08:31:29;30.10;;;12.10;;
75554;SDS011;66087;53.126;17.960;2023-12-04T08:33:58;40.20;;;15.50;;
75554;SDS011;66087;53.126;17.960;2023-12-04T08:36:25;40.00;;;15.90;;
75554;SDS011;66087;53.126;17.960;2023-12-04T08:38:51;33.90;;;14.70;;
75554;SDS011;66087;53.126;17.960;2023-12-04T08:41:18;35.20;;;14.80;;
75554;SDS011;66087;53.126;17.960;2023-12-04T08:43:51;35.70;;;15.70;;
75554;SDS011;66087;53.126;17.960;2023-12-04T08:46:17;35.00;;;15.10;;
75554;SDS011;66087;53.126;17.960;2023-12-04T08:48:43;31.30;;;13.50;;
75554;SDS011;66087;53.126;17.960;2023-12-04T08:51:15;34.70;;;15.00;;
75554;SDS011;66087;53.126;17.960;2023-12-04T08:53:42;33.10;;;14.40;;
75554;SDS011;66087;53.126;17.960;2023-12-04T08:56:09;28.20;;;12.20;;
75554;SDS011;66087;53.126;17.960;2023-12-04T08:58:36;27.30;;;10.90;;
75554;SDS011;66087;53.126;17.960;2023-12-04T09:01:03;24.30;;;10.40;;
75554;SDS011;66087;53.126;17.960;2023-12-04T09:03:30;37.60;;;15.20;;
75554;SDS011;66087;53.126;17.960;2023-12-04T09:05:57;35.40;;;14.90;;
75554;SDS011;66087;53.126;17.960;2023-12-04T09:08:23;36.00;;;14.70;;
75554;SDS011;66087;53.126;17.960;2023-12-04T09:10:52;33.10;;;13.60;;
75554;SDS011;66087;53.126;17.960;2023-12-04T09:13:19;32.70;;;13.60;;
75554;SDS011;66087;53.126;17.960;2023-12-04T09:15:45;57.20;;;21.60;;
75554;SDS011;66087;53.126;17.960;2023-12-04T09:18:27;46.30;;;17.80;;
75554;SDS011;66087;53.126;17.960;2023-12-04T09:20:58;71.50;;;28.40;;
75554;SDS011;66087;53.126;17.960;2023-12-04T09:23:27;56.50;;;23.10;;
75554;SDS011;66087;53.126;17.960;2023-12-04T09:25:54;44.30;;;19.30;;
75554;SDS011;66087;53.126;17.960;2023-12-04T09:28:24;39.80;;;16.30;;
75554;SDS011;66087;53.126;17.960;2023-12-04T09:30:53;33.60;;;13.80;;
75554;SDS011;66087;53.126;17.960;2023-12-04T09:33:20;34.90;;;15.90;;
75554;SDS011;66087;53.126;17.960;2023-12-04T09:35:50;34.30;;;13.50;;
75554;SDS011;66087;53.126;17.960;2023-12-04T09:38:16;31.80;;;13.50;;
75554;SDS011;66087;53.126;17.960;2023-12-04T09:40:45;25.20;;;10.00;;
75554;SDS011;66087;53.126;17.960;2023-12-04T09:43:14;29.70;;;12.90;;
75554;SDS011;66087;53.126;17.960;2023-12-04T09:45:41;27.10;;;10.70;;
75554;SDS011;66087;53.126;17.960;2023-12-04T09:48:07;27.60;;;11.70;;
75554;SDS011;66087;53.126;17.960;2023-12-04T09:50:36;31.60;;;13.40;;
75554;SDS011;66087;53.126;17.960;2023-12-04T09:53:04;22.10;;;8.40;;
75554;SDS011;66087;53.126;17.960;2023-12-04T09:55:33;26.90;;;12.60;;
75554;SDS011;66087;53.126;17.960;2023-12-04T09:57:59;34.40;;;14.00;;
75554;SDS011;66087;53.126;17.960;2023-12-04T10:00:26;32.90;;;13.10;;
75554;SDS011;66087;53.126;17.960;2023-12-04T10:02:53;26.70;;;11.50;;
75554;SDS011;66087;53.126;17.960;2023-12-04T10:05:19;30.10;;;12.00;;
75554;SDS011;66087;53.126;17.960;2023-12-04T10:07:46;30.70;;;12.50;;
75554;SDS011;66087;53.126;17.960;2023-12-04T10:10:12;32.10;;;13.60;;
75554;SDS011;66087;53.126;17.960;2023-12-04T10:12:40;38.10;;;16.10;;
75554;SDS011;66087;53.126;17.960;2023-12-04T10:15:06;23.20;;;9.80;;
75554;SDS011;66087;53.126;17.960;2023-12-04T10:17:33;25.20;;;10.60;;
75554;SDS011;66087;53.126;17.960;2023-12-04T10:20:04;31.60;;;14.50;;
75554;SDS011;66087;53.126;17.960;2023-12-04T10:22:36;27.90;;;12.70;;
75554;SDS011;66087;53.126;17.960;2023-12-04T10:27:41;21.00;;;8.10;;
75554;SDS011;66087;53.126;17.960;2023-12-04T10:30:07;44.10;;;18.00;;
75554;SDS011;66087;53.126;17.960;2023-12-04T10:32:36;34.40;;;13.70;;
75554;SDS011;66087;53.126;17.960;2023-12-04T10:35:03;32.00;;;13.70;;
75554;SDS011;66087;53.126;17.960;2023-12-04T10:37:37;31.20;;;12.30;;
75554;SDS011;66087;53.126;17.960;2023-12-04T10:40:26;28.10;;;11.20;;
75554;SDS011;66087;53.126;17.960;2023-12-04T10:45:34;32.80;;;13.90;;
75554;SDS011;66087;53.126;17.960;2023-12-04T10:48:00;30.30;;;12.20;;
75554;SDS011;66087;53.126;17.960;2023-12-04T10:50:26;32.00;;;13.20;;
75554;SDS011;66087;53.126;17.960;2023-12-04T10:52:53;33.30;;;12.40;;
75554;SDS011;66087;53.126;17.960;2023-12-04T10:55:21;35.50;;;15.60;;
75554;SDS011;66087;53.126;17.960;2023-12-04T10:57:49;34.70;;;14.50;;
75554;SDS011;66087;53.126;17.960;2023-12-04T11:00:22;28.80;;;11.60;;
75554;SDS011;66087;53.126;17.960;2023-12-04T11:02:55;34.00;;;15.70;;
75554;SDS011;66087;53.126;17.960;2023-12-04T11:08:23;37.40;;;16.00;;
75554;SDS011;66087;53.126;17.960;2023-12-04T11:10:57;37.80;;;15.50;;
75554;SDS011;66087;53.126;17.960;2023-12-04T11:13:27;42.70;;;17.00;;
75554;SDS011;66087;53.126;17.960;2023-12-04T11:15:56;34.50;;;13.20;;
75554;SDS011;66087;53.126;17.960;2023-12-04T11:18:25;30.50;;;13.90;;
75554;SDS011;66087;53.126;17.960;2023-12-04T11:20:54;30.20;;;12.10;;
75554;SDS011;66087;53.126;17.960;2023-12-04T11:26:22;30.50;;;11.80;;
75554;SDS011;66087;53.126;17.960;2023-12-04T11:28:48;39.90;;;17.70;;
75554;SDS011;66087;53.126;17.960;2023-12-04T11:31:14;32.30;;;13.10;;
75554;SDS011;66087;53.126;17.960;2023-12-04T11:33:42;35.60;;;14.40;;
75554;SDS011;66087;53.126;17.960;2023-12-04T11:36:08;39.30;;;16.90;;
75554;SDS011;66087;53.126;17.960;2023-12-04T11:38:40;32.70;;;14.00;;
75554;SDS011;66087;53.126;17.960;2023-12-04T11:43:46;33.50;;;14.40;;
75554;SDS011;66087;53.126;17.960;2023-12-04T11:46:13;39.10;;;16.10;;
75554;SDS011;66087;53.126;17.960;2023-12-04T11:48:40;48.60;;;20.60;;
75554;SDS011;66087;53.126;17.960;2023-12-04T11:51:06;36.10;;;16.40;;
75554;SDS011;66087;53.126;17.960;2023-12-04T11:53:38;36.00;;;14.70;;
75554;SDS011;66087;53.126;17.960;2023-12-04T11:56:08;40.90;;;14.70;;
75554;SDS011;66087;53.126;17.960;2023-12-04T11:58:41;55.80;;;20.10;;
75554;SDS011;66087;53.126;17.960;2023-12-04T12:01:09;53.00;;;21.40;;
75554;SDS011;66087;53.126;17.960;2023-12-04T12:03:37;36.90;;;16.60;;
75554;SDS011;66087;53.126;17.960;2023-12-04T12:06:04;29.00;;;10.80;;
75554;SDS011;66087;53.126;17.960;2023-12-04T12:08:31;32.80;;;15.00;;
75554;SDS011;66087;53.126;17.960;2023-12-04T12:11:04;29.90;;;13.40;;
75554;SDS011;66087;53.126;17.960;2023-12-04T12:13:30;32.30;;;14.10;;
75554;SDS011;66087;53.126;17.960;2023-12-04T12:16:01;29.50;;;12.40;;
75554;SDS011;66087;53.126;17.960;2023-12-04T12:18:34;31.50;;;14.20;;
75554;SDS011;66087;53.126;17.960;2023-12-04T12:21:03;29.40;;;13.10;;
75554;SDS011;66087;53.126;17.960;2023-12-04T12:23:30;38.40;;;17.20;;
75554;SDS011;66087;53.126;17.960;2023-12-04T12:25:59;37.00;;;13.70;;
75554;SDS011;66087;53.126;17.960;2023-12-04T12:28:32;36.90;;;17.60;;
75554;SDS011;66087;53.126;17.960;2023-12-04T12:31:03;42.50;;;18.80;;
75554;SDS011;66087;53.126;17.960;2023-12-04T12:33:29;31.30;;;13.90;;
75554;SDS011;66087;53.126;17.960;2023-12-04T12:36:01;33.80;;;14.40;;
75554;SDS011;66087;53.126;17.960;2023-12-04T12:38:30;44.20;;;18.70;;
75554;SDS011;66087;53.126;17.960;2023-12-04T12:41:06;39.00;;;16.20;;
75554;SDS011;66087;53.126;17.960;2023-12-04T12:43:38;46.90;;;19.80;;
75554;SDS011;66087;53.126;17.960;2023-12-04T12:46:04;51.10;;;20.80;;
75554;SDS011;66087;53.126;17.960;2023-12-04T12:48:32;51.90;;;21.60;;
75554;SDS011;66087;53.126;17.960;2023-12-04T12:51:02;47.60;;;20.90;;
75554;SDS011;66087;53.126;17.960;2023-12-04T12:53:32;47.70;;;18.40;;
75554;SDS011;66087;53.126;17.960;2023-12-04T12:55:59;45.90;;;17.20;;
75554;SDS011;66087;53.126;17.960;2023-12-04T12:58:27;50.60;;;19.60;;
75554;SDS011;66087;53.126;17.960;2023-12-04T13:00:56;45.50;;;15.80;;
75554;SDS011;66087;53.126;17.960;2023-12-04T13:03:22;55.60;;;19.40;;
75554;SDS011;66087;53.126;17.960;2023-12-04T13:05:48;53.40;;;20.50;;
75554;SDS011;66087;53.126;17.960;2023-12-04T13:08:14;47.50;;;18.50;;
75554;SDS011;66087;53.126;17.960;2023-12-04T13:10:41;45.50;;;19.40;;
75554;SDS011;66087;53.126;17.960;2023-12-04T13:13:11;34.40;;;14.10;;
75554;SDS011;66087;53.126;17.960;2023-12-04T13:15:39;32.50;;;13.30;;
75554;SDS011;66087;53.126;17.960;2023-12-04T13:18:07;37.90;;;17.40;;
75554;SDS011;66087;53.126;17.960;2023-12-04T13:20:33;28.00;;;11.80;;
75554;SDS011;66087;53.126;17.960;2023-12-04T13:23:00;39.90;;;16.70;;
75554;SDS011;66087;53.126;17.960;2023-12-04T13:25:27;32.80;;;13.90;;
75554;SDS011;66087;53.126;17.960;2023-12-04T13:27:53;47.20;;;18.10;;
75554;SDS011;66087;53.126;17.960;2023-12-04T13:30:19;40.30;;;15.50;;
75554;SDS011;66087;53.126;17.960;2023-12-04T13:32:52;59.40;;;21.30;;
75554;SDS011;66087;53.126;17.960;2023-12-04T13:35:18;76.70;;;27.00;;
75554;SDS011;66087;53.126;17.960;2023-12-04T13:37:44;87.50;;;31.20;;
75554;SDS011;66087;53.126;17.960;2023-12-04T13:40:13;71.70;;;26.10;;
75554;SDS011;66087;53.126;17.960;2023-12-04T13:42:41;46.80;;;18.90;;
75554;SDS011;66087;53.126;17.960;2023-12-04T13:45:18;66.40;;;24.20;;
75554;SDS011;66087;53.126;17.960;2023-12-04T13:47:47;64.70;;;24.40;;
75554;SDS011;66087;53.126;17.960;2023-12-04T13:50:17;91.70;;;32.20;;
75554;SDS011;66087;53.126;17.960;2023-12-04T13:52:47;70.60;;;25.00;;
75554;SDS011;66087;53.126;17.960;2023-12-04T13:55:23;90.30;;;32.50;;
75554;SDS011;66087;53.126;17.960;2023-12-04T13:58:08;66.40;;;26.30;;
75554;SDS011;66087;53.126;17.960;2023-12-04T14:00:42;55.70;;;23.40;;
75554;SDS011;66087;53.126;17.960;2023-12-04T14:03:09;48.70;;;21.00;;
75554;SDS011;66087;53.126;17.960;2023-12-04T14:05:36;48.30;;;21.20;;
75554;SDS011;66087;53.126;17.960;2023-12-04T14:08:02;55.50;;;24.00;;
75554;SDS011;66087;53.126;17.960;2023-12-04T14:10:32;41.00;;;17.80;;
75554;SDS011;66087;53.126;17.960;2023-12-04T14:12:57;50.80;;;21.80;;
75554;SDS011;66087;53.126;17.960;2023-12-04T14:15:23;45.20;;;20.70;;
75554;SDS011;66087;53.126;17.960;2023-12-04T14:17:49;41.70;;;18.80;;
75554;SDS011;66087;53.126;17.960;2023-12-04T14:20:15;38.40;;;17.70;;
75554;SDS011;66087;53.126;17.960;2023-12-04T14:22:59;39.70;;;17.60;;
75554;SDS011;66087;53.126;17.960;2023-12-04T14:25:25;40.10;;;17.80;;
75554;SDS011;66087;53.126;17.960;2023-12-04T14:28:02;38.80;;;15.60;;
75554;SDS011;66087;53.126;17.960;2023-12-04T14:30:28;39.30;;;17.10;;
75554;SDS011;66087;53.126;17.960;2023-12-04T14:32:59;41.00;;;17.90;;
75554;SDS011;66087;53.126;17.960;2023-12-04T14:35:31;45.90;;;18.80;;
75554;SDS011;66087;53.126;17.960;2023-12-04T14:38:13;54.50;;;23.30;;
75554;SDS011;66087;53.126;17.960;2023-12-04T14:40:47;64.50;;;26.00;;
75554;SDS011;66087;53.126;17.960;2023-12-04T14:43:18;55.00;;;23.90;;
75554;SDS011;66087;53.126;17.960;2023-12-04T14:45:44;55.70;;;24.30;;
75554;SDS011;66087;53.126;17.960;2023-12-04T14:48:12;54.60;;;24.50;;
75554;SDS011;66087;53.126;17.960;2023-12-04T14:50:40;53.20;;;22.60;;
75554;SDS011;66087;53.126;17.960;2023-12-04T14:53:15;56.00;;;25.80;;